Latest Weather Observations for Hope Banks Beacon

IDQ60801

Issued at 5:52 am EST Saturday 21 May 2022 (issued every 10 minutes, with the page automatically refreshed every 10 minutes)

About weather observations | Map of weather stations | Latest weather observations for QLD | Other Formats
Station Details ID: 200897 Name: HOPE BANKS BEACON Lat: -27.43 Lon: 153.29 Height: 7.0 m
Data from the previous 72 hours. | See also: Recent months for locations in Queensland
Date/Time
EST
Temp
°C
App
Temp
°C
Dew
Point
°C
Rel
Hum
%
Delta-T
°C
Wind Press
QNH
hPa
Press
MSL
hPa
Rain since
9am
mm
Dir  Spd
km/h
Gust
km/h
Spd
kts
Gust
kts
21/05:30am - - - - - SSW 15 17 8 9 - - -
21/05:00am - - - - - S 15 17 8 9 - - -
21/04:30am - - - - - SSW 13 17 7 9 - - -
21/04:00am - - - - - S 17 19 9 10 - - -
21/03:30am - - - - - S 17 20 9 11 - - -
21/03:00am - - - - - SSW 19 24 10 13 - - -
21/02:30am - - - - - SW 17 22 9 12 - - -
21/02:00am - - - - - ESE 15 20 8 11 - - -
21/01:30am - - - - - SSE 15 19 8 10 - - -
21/01:00am - - - - - ESE 24 46 13 25 - - -
21/12:30am - - - - - ESE 30 48 16 26 - - -
21/12:19am - - - - - SSE 28 50 15 27 - - -
21/12:00am - - - - - S 20 24 11 13 - - -
 
Date/Time
EST
Temp
°C
App
Temp
°C
Dew
Point
°C
Rel
Hum
%
Delta-T
°C
Wind Press
QNH
hPa
Press
MSL
hPa
Rain since
9am
mm
Dir  Spd
km/h
Gust
km/h
Spd
kts
Gust
kts
20/11:30pm - - - - - SE 22 26 12 14 - - -
20/11:00pm - - - - - SE 22 28 12 15 - - -
20/10:30pm - - - - - SE 24 33 13 18 - - -
20/10:00pm - - - - - SE 26 33 14 18 - - -
20/09:30pm - - - - - SE 24 32 13 17 - - -
20/09:00pm - - - - - SSE 30 35 16 19 - - -
20/08:30pm - - - - - SSE 32 35 17 19 - - -
20/08:00pm - - - - - S 28 37 15 20 - - -
20/07:30pm - - - - - SSE 28 33 15 18 - - -
20/07:00pm - - - - - SSE 30 35 16 19 - - -
20/06:30pm - - - - - SSE 30 35 16 19 - - -
20/06:00pm - - - - - S 28 35 15 19 - - -
20/05:30pm - - - - - S 20 22 11 12 - - -
20/05:00pm - - - - - SSE 26 33 14 18 - - -
20/04:30pm - - - - - SSE 35 41 19 22 - - -
20/04:00pm - - - - - S 32 41 17 22 - - -
20/03:30pm - - - - - SSE 26 35 14 19 - - -
20/03:00pm - - - - - SE 32 43 17 23 - - -
20/02:30pm - - - - - S 26 30 14 16 - - -
20/02:00pm - - - - - SE 32 37 17 20 - - -
20/01:30pm - - - - - SE 28 37 15 20 - - -
20/01:00pm - - - - - SE 32 46 17 25 - - -
20/12:30pm - - - - - SE 22 30 12 16 - - -
20/12:00pm - - - - - SE 33 43 18 23 - - -
20/11:30am - - - - - SE 30 37 16 20 - - -
20/11:00am - - - - - ESE 28 35 15 19 - - -
20/10:30am - - - - - ESE 30 37 16 20 - - -
20/10:00am - - - - - ESE 30 37 16 20 - - -
20/09:30am - - - - - ESE 26 32 14 17 - - -
20/09:00am - - - - - SE 26 33 14 18 - - -
20/08:30am - - - - - SE 28 33 15 18 - - -
20/08:00am - - - - - SE 28 33 15 18 - - -
20/07:30am - - - - - SE 28 33 15 18 - - -
20/07:00am - - - - - SE 28 33 15 18 - - -
20/06:30am - - - - - SE 30 35 16 19 - - -
20/06:00am - - - - - SE 32 37 17 20 - - -
20/05:30am - - - - - SE 30 35 16 19 - - -
20/05:00am - - - - - SE 32 39 17 21 - - -
20/04:30am - - - - - SE 28 32 15 17 - - -
20/04:00am - - - - - SE 28 33 15 18 - - -
20/03:30am - - - - - SE 30 35 16 19 - - -
20/03:00am - - - - - SE 30 37 16 20 - - -
20/02:30am - - - - - SE 30 33 16 18 - - -
20/02:00am - - - - - SE 30 35 16 19 - - -
20/01:30am - - - - - SE 28 33 15 18 - - -
20/01:00am - - - - - ESE 26 33 14 18 - - -
20/12:30am - - - - - SE 22 28 12 15 - - -
20/12:00am - - - - - SSE 17 28 9 15 - - -
 
Date/Time
EST
Temp
°C
App
Temp
°C
Dew
Point
°C
Rel
Hum
%
Delta-T
°C
Wind Press
QNH
hPa
Press
MSL
hPa
Rain since
9am
mm
Dir  Spd
km/h
Gust
km/h
Spd
kts
Gust
kts
19/11:30pm - - - - - ESE 22 30 12 16 - - -
19/11:00pm - - - - - ESE 22 26 12 14 - - -
19/10:30pm - - - - - SE 26 32 14 17 - - -
19/10:00pm - - - - - SE 24 32 13 17 - - -
19/09:30pm - - - - - SSE 20 26 11 14 - - -
19/09:00pm - - - - - SE 22 28 12 15 - - -
19/08:30pm - - - - - SE 22 28 12 15 - - -
19/08:00pm - - - - - SE 26 32 14 17 - - -
19/07:30pm - - - - - SE 26 32 14 17 - - -
19/07:00pm - - - - - SE 28 33 15 18 - - -
19/06:30pm - - - - - SE 24 32 13 17 - - -
19/06:00pm - - - - - SE 24 28 13 15 - - -
19/05:30pm - - - - - SE 24 28 13 15 - - -
19/05:00pm - - - - - SE 22 28 12 15 - - -
19/04:30pm - - - - - SE 26 32 14 17 - - -
19/04:00pm - - - - - SE 26 30 14 16 - - -
19/03:30pm - - - - - SE 26 32 14 17 - - -
19/03:00pm - - - - - SE 28 37 15 20 - - -
19/02:30pm - - - - - SE 28 33 15 18 - - -
19/02:00pm - - - - - SE 28 32 15 17 - - -
19/01:30pm - - - - - SE 28 33 15 18 - - -
19/01:00pm - - - - - SE 30 35 16 19 - - -
19/12:30pm - - - - - SE 26 33 14 18 - - -
19/12:00pm - - - - - SE 28 33 15 18 - - -
19/11:30am - - - - - SE 30 35 16 19 - - -
19/11:00am - - - - - SE 24 30 13 16 - - -
19/10:30am - - - - - SSE 24 32 13 17 - - -
19/10:00am - - - - - SE 26 32 14 17 - - -
19/09:30am - - - - - SSE 32 37 17 20 - - -
19/09:00am - - - - - S 20 26 11 14 - - -
19/08:30am - - - - - S 20 26 11 14 - - -
19/08:00am - - - - - S 20 26 11 14 - - -
19/07:30am - - - - - S 19 22 10 12 - - -
19/07:00am - - - - - SSW 11 13 6 7 - - -
19/06:30am - - - - - SW 13 15 7 8 - - -
19/06:00am - - - - - SW 15 17 8 9 - - -
19/05:30am - - - - - SW 19 20 10 11 - - -
19/05:00am - - - - - SSW 13 17 7 9 - - -
19/04:30am - - - - - SW 15 20 8 11 - - -
19/04:00am - - - - - SSW 9 9 5 5 - - -
19/03:30am - - - - - SW 7 9 4 5 - - -
19/03:00am - - - - - SSW 9 11 5 6 - - -
19/02:30am - - - - - S 11 15 6 8 - - -
19/02:00am - - - - - S 9 13 5 7 - - -
19/01:30am - - - - - S 7 9 4 5 - - -
19/01:00am - - - - - SSW 7 9 4 5 - - -
19/12:30am - - - - - S 9 9 5 5 - - -
19/12:00am - - - - - SSW 6 7 3 4 - - -
 
Date/Time
EST
Temp
°C
App
Temp
°C
Dew
Point
°C
Rel
Hum
%
Delta-T
°C
Wind Press
QNH
hPa
Press
MSL
hPa
Rain since
9am
mm
Dir  Spd
km/h
Gust
km/h
Spd
kts
Gust
kts
18/11:30pm - - - - - SW 7 9 4 5 - - -
18/11:00pm - - - - - ESE 4 6 2 3 - - -
18/10:30pm - - - - - ESE 4 6 2 3 - - -
18/10:00pm - - - - - CALM 0 0 0 0 - - -
18/09:30pm - - - - - CALM 0 0 0 0 - - -
18/09:00pm - - - - - ESE 2 2 1 1 - - -
18/08:30pm - - - - - SE 4 6 2 3 - - -
18/08:00pm - - - - - SE 6 6 3 3 - - -
18/07:30pm - - - - - SE 6 6 3 3 - - -
18/07:00pm - - - - - ESE 9 9 5 5 - - -
18/06:30pm - - - - - ESE 9 11 5 6 - - -
18/06:00pm - - - - - ESE 7 9 4 5 - - -
18/05:30pm - - - - - ESE 11 13 6 7 - - -
18/05:00pm - - - - - ESE 9 13 5 7 - - -
18/04:30pm - - - - - ESE 9 11 5 6 - - -
18/04:00pm - - - - - E 7 9 4 5 - - -
18/03:30pm - - - - - ESE 6 7 3 4 - - -
18/03:00pm - - - - - SE 9 11 5 6 - - -
18/02:30pm - - - - - SSE 9 11 5 6 - - -
18/02:00pm - - - - - SSE 11 13 6 7 - - -
18/01:30pm - - - - - SSE 9 11 5 6 - - -
18/01:00pm - - - - - S 11 13 6 7 - - -
18/12:30pm - - - - - SSE 11 13 6 7 - - -
18/12:00pm - - - - - S 13 15 7 8 - - -
18/11:30am - - - - - S 13 15 7 8 - - -
18/11:00am - - - - - SSE 11 15 6 8 - - -
18/10:30am - - - - - S 13 15 7 8 - - -
18/10:00am - - - - - SSW 9 13 5 7 - - -
18/09:30am - - - - - SSW 11 13 6 7 - - -
18/09:00am - - - - - SSW 15 20 8 11 - - -
18/08:30am - - - - - SSW 17 19 9 10 - - -
18/08:00am - - - - - S 17 20 9 11 - - -
18/07:30am - - - - - S 15 17 8 9 - - -
18/07:00am - - - - - SSW 15 17 8 9 - - -
18/06:30am - - - - - SSE 13 15 7 8 - - -
18/06:00am - - - - - S 15 17 8 9 - - -

Other formats

Comma delimited format used in spreadsheet applications
http://www.bom.gov.au/fwo/IDQ60801/IDQ60801.99497.axf

JavaScript Object Notation format (JSON) in row-major order
http://www.bom.gov.au/fwo/IDQ60801/IDQ60801.99497.json

Data quality

Most of these data are generated automatically and are frequently updated. Quality checks on data are not normally performed. It is possible for incorrect values to appear. Refer to information at About Latest Weather Observations and please check the disclaimer before using these data.